createdAt,value
2018-06-10T00:01:02.273Z,91.85
2018-06-10T00:02:10.642Z,91.88
2018-06-10T00:03:16.857Z,91.43
2018-06-10T00:04:22.669Z,91.90
2018-06-10T00:05:28.516Z,92.07
2018-06-10T00:06:35.280Z,91.68
2018-06-10T00:07:40.051Z,91.39
2018-06-10T00:08:47.297Z,92.35
2018-06-10T00:09:52.689Z,92.22
2018-06-10T00:10:59.960Z,92.39
2018-06-10T00:12:07.685Z,92.52
2018-06-10T00:13:16.259Z,92.39
2018-06-10T00:15:35.077Z,92.07
2018-06-10T00:16:42.370Z,92.38
2018-06-10T00:17:50.096Z,92.06
2018-06-10T00:18:59.141Z,92.45
2018-06-10T00:20:10.498Z,92.31
2018-06-10T00:21:16.185Z,93.14
2018-06-10T00:22:23.200Z,92.59
2018-06-10T00:23:30.751Z,92.98
2018-06-10T00:24:40.611Z,92.68
2018-06-10T00:25:48.645Z,92.68
2018-06-10T00:27:01.321Z,92.31
2018-06-10T00:28:09.611Z,92.66
2018-06-10T00:29:19.848Z,92.41
2018-06-10T00:30:24.719Z,92.28
2018-06-10T00:31:39.503Z,92.22
2018-06-10T00:32:47.549Z,92.10
2018-06-10T00:33:53.349Z,92.20
2018-06-10T00:34:58.868Z,91.92
2018-06-10T00:36:04.303Z,91.86
2018-06-10T00:37:09.595Z,91.88
2018-06-10T00:38:16.660Z,92.05
2018-06-10T00:39:23.231Z,91.86
2018-06-10T00:40:32.239Z,91.96
2018-06-10T00:41:38.179Z,91.72
2018-06-10T00:42:45.390Z,91.81
2018-06-10T00:43:50.142Z,91.80
2018-06-10T00:44:55.397Z,91.93
2018-06-10T00:46:01.948Z,91.49
2018-06-10T00:47:08.020Z,91.75
2018-06-10T00:48:16.405Z,91.86
2018-06-10T00:49:21.207Z,92.05
2018-06-10T00:50:27.501Z,91.59
2018-06-10T00:51:32.443Z,91.31
2018-06-10T00:52:37.166Z,91.37
2018-06-10T00:53:41.840Z,91.32
2018-06-10T00:54:46.548Z,91.23
2018-06-10T00:55:52.703Z,91.44
2018-06-10T00:56:57.411Z,91.24
2018-06-10T00:58:03.393Z,91.12
2018-06-10T00:59:10.074Z,91.34
2018-06-10T01:00:14.781Z,91.66
2018-06-10T01:01:19.563Z,91.25
2018-06-10T01:02:24.269Z,91.61
2018-06-10T01:03:29.587Z,91.33
2018-06-10T01:04:34.653Z,91.33
2018-06-10T01:05:39.374Z,91.89
2018-06-10T01:06:44.379Z,91.78
2018-06-10T01:07:52.800Z,92.24
2018-06-10T01:08:57.655Z,91.95
2018-06-10T01:10:04.285Z,91.92
2018-06-10T01:11:10.156Z,91.69
2018-06-10T01:12:14.949Z,91.80
2018-06-10T01:13:20.148Z,92.08
2018-06-10T01:14:24.890Z,91.93
2018-06-10T01:15:29.809Z,92.03
2018-06-10T01:16:35.119Z,92.21
2018-06-10T01:17:39.850Z,92.10
2018-06-10T01:18:45.507Z,92.39
2018-06-10T01:19:51.854Z,92.21
2018-06-10T01:20:56.573Z,92.11
2018-06-10T01:22:01.315Z,92.33
2018-06-10T01:23:06.033Z,92.37
2018-06-10T01:24:10.765Z,92.52
2018-06-10T01:25:17.152Z,92.13
2018-06-10T01:26:26.744Z,92.10
2018-06-10T01:27:31.555Z,92.25
2018-06-10T01:28:36.564Z,92.55
2018-06-10T01:29:41.310Z,92.36
2018-06-10T01:30:46.039Z,92.70
2018-06-10T01:31:50.760Z,92.57
2018-06-10T01:32:56.139Z,92.50
2018-06-10T01:34:01.653Z,92.50
2018-06-10T01:35:06.655Z,92.45
2018-06-10T01:36:12.238Z,93.00
2018-06-10T01:37:16.991Z,92.51
2018-06-10T01:38:23.361Z,92.45
2018-06-10T01:39:28.692Z,92.71
2018-06-10T01:40:33.852Z,92.60
2018-06-10T01:41:38.880Z,92.83
2018-06-10T01:42:43.609Z,93.16
2018-06-10T01:43:48.381Z,92.63
2018-06-10T01:44:53.093Z,92.70
2018-06-10T01:45:58.818Z,92.91
2018-06-10T01:47:03.605Z,92.75
2018-06-10T01:48:08.650Z,93.32
2018-06-10T01:49:13.364Z,93.23
2018-06-10T01:50:18.116Z,93.11
2018-06-10T01:51:22.889Z,92.51
2018-06-10T01:52:27.661Z,93.09
2018-06-10T01:53:34.613Z,92.91
2018-06-10T01:54:39.874Z,92.85
2018-06-10T01:55:46.066Z,92.78
2018-06-10T01:56:52.241Z,92.79
2018-06-10T01:57:56.982Z,93.45
2018-06-10T01:59:02.465Z,93.25
2018-06-10T02:00:08.342Z,93.20
2018-06-10T02:01:13.937Z,92.87
2018-06-10T02:02:19.227Z,93.18
2018-06-10T02:03:27.959Z,93.32
2018-06-10T02:04:33.304Z,93.53
2018-06-10T02:05:39.304Z,93.53
2018-06-10T02:06:45.116Z,93.57
2018-06-10T02:07:50.761Z,93.47
2018-06-10T02:08:57.405Z,93.79
2018-06-10T02:10:04.501Z,93.44
2018-06-10T02:11:10.494Z,93.98
2018-06-10T02:12:16.480Z,93.91
2018-06-10T02:13:22.328Z,93.85
2018-06-10T02:14:27.309Z,94.15
2018-06-10T02:15:32.033Z,93.70
2018-06-10T02:16:37.709Z,94.16
2018-06-10T02:17:42.422Z,94.05
2018-06-10T02:18:47.103Z,94.31
2018-06-10T02:19:52.162Z,94.06
2018-06-10T02:20:56.841Z,93.92
2018-06-10T02:22:02.753Z,93.78
2018-06-10T02:23:07.775Z,94.02
2018-06-10T02:24:13.352Z,93.87
2018-06-10T02:25:18.174Z,94.23
2018-06-10T02:26:23.149Z,94.07
2018-06-10T02:27:27.813Z,93.96
2018-06-10T02:28:32.448Z,93.95
2018-06-10T02:29:37.074Z,94.40
2018-06-10T02:30:43.345Z,93.96
2018-06-10T02:31:49.380Z,94.51
2018-06-10T02:32:54.226Z,94.42
2018-06-10T02:33:59.360Z,94.71
2018-06-10T02:35:05.578Z,94.12
2018-06-10T02:36:10.242Z,94.13
2018-06-10T02:37:14.860Z,94.00
2018-06-10T02:38:19.489Z,94.28
2018-06-10T02:39:28.543Z,94.00
2018-06-10T02:40:33.296Z,94.50
2018-06-10T02:41:37.965Z,94.26
2018-06-10T02:42:44.712Z,94.71
2018-06-10T02:43:51.052Z,94.53
2018-06-10T02:44:56.523Z,94.36
2018-06-10T02:46:01.428Z,94.87
2018-06-10T02:47:06.086Z,94.77
2018-06-10T02:48:11.412Z,94.77
2018-06-10T02:49:16.045Z,94.66
2018-06-10T02:50:25.130Z,94.97
2018-06-10T02:51:29.772Z,95.09
2018-06-10T02:52:34.416Z,94.85
2018-06-10T02:53:42.445Z,95.08
2018-06-10T02:54:47.122Z,95.43
2018-06-10T02:55:51.746Z,95.34
2018-06-10T02:56:56.394Z,95.14
2018-06-10T02:58:01.755Z,94.79
2018-06-10T02:59:06.378Z,95.28
2018-06-10T03:00:10.998Z,95.05
2018-06-10T03:01:15.643Z,95.32
2018-06-10T03:02:20.315Z,95.26
2018-06-10T03:03:25.062Z,95.25
2018-06-10T03:04:29.939Z,94.96
2018-06-10T03:05:35.341Z,95.18
2018-06-10T03:06:39.926Z,95.16
2018-06-10T03:07:45.423Z,95.03
2018-06-10T03:08:50.091Z,95.23
2018-06-10T03:09:55.693Z,94.99
2018-06-10T03:11:00.861Z,95.12
2018-06-10T03:12:05.533Z,95.23
2018-06-10T03:13:10.257Z,95.21
2018-06-10T03:14:14.774Z,95.20
2018-06-10T03:15:19.321Z,95.21
2018-06-10T03:16:23.819Z,95.15
2018-06-10T03:17:29.246Z,95.02
2018-06-10T03:18:33.757Z,95.26
2018-06-10T03:19:38.418Z,95.49
2018-06-10T03:20:42.964Z,95.27
2018-06-10T03:21:47.455Z,95.58
2018-06-10T03:22:53.071Z,95.34
2018-06-10T03:23:58.059Z,95.52
2018-06-10T03:25:03.337Z,95.58
2018-06-10T03:26:08.048Z,95.46
2018-06-10T03:27:15.689Z,95.62
2018-06-10T03:28:20.405Z,95.41
2018-06-10T03:29:28.633Z,95.61
2018-06-10T03:30:34.319Z,95.65
2018-06-10T03:31:39.131Z,95.46
2018-06-10T03:32:43.787Z,95.75
2018-06-10T03:33:48.548Z,95.14
2018-06-10T03:34:53.926Z,95.68
2018-06-10T03:35:58.722Z,95.27
2018-06-10T03:37:06.337Z,95.02
2018-06-10T03:38:10.951Z,94.84
2018-06-10T03:39:15.565Z,94.87
2018-06-10T03:40:20.229Z,94.95
2018-06-10T03:41:24.921Z,95.19
2018-06-10T03:42:30.263Z,95.31
2018-06-10T03:43:35.269Z,95.18
2018-06-10T03:44:39.860Z,95.13
2018-06-10T03:45:45.480Z,95.36
2018-06-10T03:46:50.023Z,95.12
2018-06-10T03:47:54.577Z,95.42
2018-06-10T03:48:59.087Z,95.51
2018-06-10T03:50:03.954Z,95.48
2018-06-10T03:51:08.493Z,95.46
2018-06-10T03:52:13.396Z,95.13
2018-06-10T03:53:17.955Z,95.22
2018-06-10T03:54:23.059Z,95.35
2018-06-10T03:55:28.292Z,95.49
2018-06-10T03:56:33.081Z,95.20
2018-06-10T03:57:37.605Z,95.54
2018-06-10T03:58:42.136Z,95.58
2018-06-10T03:59:47.302Z,95.27
2018-06-10T04:00:51.787Z,95.04
2018-06-10T04:01:56.279Z,95.21
2018-06-10T04:03:01.057Z,95.25
2018-06-10T04:04:05.541Z,95.45
2018-06-10T04:05:10.050Z,95.31
2018-06-10T04:06:15.181Z,95.00
2018-06-10T04:07:20.129Z,94.96
2018-06-10T04:08:24.640Z,95.54
2018-06-10T04:09:29.462Z,95.72
2018-06-10T04:10:33.988Z,95.77
2018-06-10T04:11:38.672Z,95.13
2018-06-10T04:12:45.213Z,95.25
2018-06-10T04:13:51.197Z,95.32
2018-06-10T04:14:56.656Z,95.05
2018-06-10T04:16:01.558Z,94.99
2018-06-10T04:17:06.511Z,95.37
2018-06-10T04:18:11.882Z,94.96
2018-06-10T04:19:17.335Z,95.52
2018-06-10T04:20:21.960Z,94.96
2018-06-10T04:21:26.610Z,94.96
2018-06-10T04:22:32.468Z,94.87
2018-06-10T04:23:37.080Z,94.85
2018-06-10T04:24:42.365Z,95.09
2018-06-10T04:25:46.977Z,94.74
2018-06-10T04:26:52.358Z,95.18
2018-06-10T04:27:57.297Z,95.24
2018-06-10T04:29:01.949Z,94.85
2018-06-10T04:30:06.828Z,95.18
2018-06-10T04:31:11.434Z,94.83
2018-06-10T04:32:15.973Z,95.27
2018-06-10T04:33:20.442Z,95.37
2018-06-10T04:34:29.732Z,94.96
2018-06-10T04:35:34.570Z,95.18
2018-06-10T04:36:42.188Z,94.87
2018-06-10T04:37:46.739Z,95.31
2018-06-10T04:38:51.278Z,94.82
2018-06-10T04:39:55.902Z,95.35
2018-06-10T04:41:00.860Z,95.07
2018-06-10T04:42:05.498Z,95.07
2018-06-10T04:43:11.079Z,95.25
2018-06-10T04:44:16.286Z,94.93
2018-06-10T04:45:21.168Z,94.73
2018-06-10T04:46:25.802Z,94.86
2018-06-10T04:47:31.992Z,95.36
2018-06-10T04:48:36.626Z,95.23
2018-06-10T04:49:41.289Z,95.03
2018-06-10T04:50:45.994Z,94.80
2018-06-10T04:51:50.635Z,95.02
2018-06-10T04:52:55.325Z,94.62
2018-06-10T04:54:00.273Z,94.59
2018-06-10T04:55:04.922Z,94.66
2018-06-10T04:56:10.408Z,94.58
2018-06-10T04:57:15.201Z,94.40
2018-06-10T04:58:20.799Z,94.63
2018-06-10T04:59:26.974Z,95.34
2018-06-10T05:00:32.766Z,94.77
2018-06-10T05:01:38.525Z,95.15
2018-06-10T05:02:43.139Z,95.55
2018-06-10T05:03:47.746Z,95.48
2018-06-10T05:04:52.516Z,95.89
2018-06-10T05:05:58.019Z,95.72
2018-06-10T05:07:02.983Z,96.20
2018-06-10T05:08:07.597Z,95.85
2018-06-10T05:09:12.894Z,96.28
2018-06-10T05:10:17.581Z,96.19
2018-06-10T05:11:22.236Z,96.59
2018-06-10T05:12:27.414Z,96.66
2018-06-10T05:13:32.560Z,96.17
2018-06-10T05:14:37.144Z,96.27
2018-06-10T05:15:41.707Z,96.16
2018-06-10T05:16:46.230Z,96.01
2018-06-10T05:17:50.781Z,96.78
2018-06-10T05:18:56.038Z,96.57
2018-06-10T05:20:00.910Z,96.47
2018-06-10T05:21:05.515Z,96.61
2018-06-10T05:22:10.085Z,96.74
2018-06-10T05:23:15.526Z,96.48
2018-06-10T05:24:20.071Z,96.32
2018-06-10T05:25:24.637Z,96.54
2018-06-10T05:26:29.431Z,96.45
2018-06-10T05:27:33.962Z,96.36
2018-06-10T05:28:39.033Z,96.42
2018-06-10T05:29:43.685Z,96.32
2018-06-10T05:30:48.598Z,95.90
2018-06-10T05:31:54.020Z,95.99
2018-06-10T05:32:59.217Z,96.09
2018-06-10T05:34:04.215Z,96.23
2018-06-10T05:35:08.882Z,96.40
2018-06-10T05:36:13.529Z,96.30
2018-06-10T05:37:18.156Z,96.15
2018-06-10T05:38:25.071Z,96.19
2018-06-10T05:39:30.076Z,95.64
2018-06-10T05:40:36.320Z,95.34
2018-06-10T05:41:40.994Z,95.51
2018-06-10T05:42:46.431Z,95.62
2018-06-10T05:43:52.793Z,95.72
2018-06-10T05:45:00.982Z,95.55
2018-06-10T05:46:06.089Z,94.98
2018-06-10T05:47:10.747Z,95.32
2018-06-10T05:48:16.511Z,94.58
2018-06-10T05:49:22.492Z,94.61
2018-06-10T05:50:28.471Z,95.09
2018-06-10T05:51:34.363Z,94.65
2018-06-10T05:52:47.395Z,95.06
2018-06-10T05:53:53.778Z,94.74
2018-06-10T05:54:58.462Z,94.71
2018-06-10T05:56:03.682Z,94.20
2018-06-10T05:57:11.498Z,94.56
2018-06-10T05:58:17.639Z,94.50
2018-06-10T05:59:25.233Z,94.46
2018-06-10T06:00:35.097Z,93.29
2018-06-10T06:01:41.449Z,93.32
2018-06-10T06:02:47.352Z,93.22
2018-06-10T06:03:52.177Z,93.62
2018-06-10T06:04:58.024Z,93.36
2018-06-10T06:06:03.184Z,93.15
2018-06-10T06:07:09.201Z,92.63
2018-06-10T06:08:14.247Z,93.33
2018-06-10T06:09:19.886Z,92.48
2018-06-10T06:10:26.473Z,92.35
2018-06-10T06:11:32.849Z,92.08
2018-06-10T06:12:39.149Z,92.16
2018-06-10T06:13:44.429Z,92.52
2018-06-10T06:14:49.880Z,91.77
2018-06-10T06:15:54.373Z,92.44
2018-06-10T06:16:58.890Z,92.41
2018-06-10T06:18:08.211Z,92.46
2018-06-10T06:19:13.018Z,91.75
2018-06-10T06:20:17.712Z,92.11
2018-06-10T06:21:22.325Z,91.84
2018-06-10T06:22:26.972Z,91.06
2018-06-10T06:23:31.616Z,91.77
2018-06-10T06:24:37.005Z,91.48
2018-06-10T06:25:42.670Z,91.38
2018-06-10T06:26:47.326Z,91.33
2018-06-10T06:27:51.969Z,91.33
2018-06-10T06:28:56.608Z,91.21
2018-06-10T06:30:03.164Z,91.81
2018-06-10T06:31:09.808Z,91.29
2018-06-10T06:32:14.455Z,91.58
2018-06-10T06:33:23.534Z,91.32
2018-06-10T06:34:28.056Z,90.99
2018-06-10T06:35:33.448Z,91.30
2018-06-10T06:36:39.376Z,90.95
2018-06-10T06:37:44.284Z,90.84
2018-06-10T06:38:51.101Z,90.70
2018-06-10T06:39:55.768Z,90.30
2018-06-10T06:41:00.438Z,90.09
2018-06-10T06:42:05.060Z,90.27
2018-06-10T06:43:09.747Z,89.79
2018-06-10T06:44:14.682Z,89.81
2018-06-10T06:45:19.299Z,89.47
2018-06-10T06:46:23.928Z,89.81
2018-06-10T06:47:28.560Z,89.46
2018-06-10T06:48:34.413Z,89.88
2018-06-10T06:49:39.083Z,89.54
2018-06-10T06:50:44.068Z,89.31
2018-06-10T06:51:49.288Z,88.99
2018-06-10T06:52:54.357Z,89.26
2018-06-10T06:53:58.973Z,89.30
2018-06-10T06:55:03.619Z,89.17
2018-06-10T06:56:11.956Z,89.01
2018-06-10T06:57:16.768Z,88.82
2018-06-10T06:58:21.544Z,88.27
2018-06-10T06:59:27.897Z,87.66
2018-06-10T07:00:32.418Z,87.50
2018-06-10T07:01:36.937Z,87.31
2018-06-10T07:02:41.456Z,86.79
2018-06-10T07:03:46.289Z,87.13
2018-06-10T07:04:51.144Z,87.10
2018-06-10T07:05:55.678Z,86.85
2018-06-10T07:07:00.749Z,85.59
2018-06-10T07:08:05.605Z,86.36
2018-06-10T07:09:10.459Z,86.31
2018-06-10T07:10:15.738Z,86.32
2018-06-10T07:11:20.320Z,85.91
2018-06-10T07:12:24.853Z,85.52
2018-06-10T07:13:30.096Z,85.37
2018-06-10T07:14:34.645Z,85.55
2018-06-10T07:15:39.902Z,85.68
2018-06-10T07:16:45.841Z,85.92
2018-06-10T07:17:52.911Z,85.60
2018-06-10T07:18:57.578Z,84.67
2018-06-10T07:20:02.330Z,84.99
2018-06-10T07:21:07.725Z,84.41
2018-06-10T07:22:13.641Z,84.09
2018-06-10T07:23:18.610Z,83.93
2018-06-10T07:24:25.290Z,83.44
2018-06-10T07:25:29.984Z,82.80
2018-06-10T07:26:35.324Z,83.09
2018-06-10T07:27:41.249Z,82.43
2018-06-10T07:28:47.611Z,82.01
2018-06-10T07:29:52.274Z,82.21
2018-06-10T07:30:56.905Z,81.75
2018-06-10T07:32:02.072Z,82.07
2018-06-10T07:33:08.235Z,82.07
2018-06-10T07:34:15.459Z,81.77
2018-06-10T07:35:21.248Z,81.74
2018-06-10T07:36:26.795Z,81.61
2018-06-10T07:37:32.488Z,81.68
2018-06-10T07:38:37.009Z,81.22
2018-06-10T07:39:41.579Z,81.07
2018-06-10T07:40:46.344Z,80.79
2018-06-10T07:41:52.229Z,80.59
2018-06-10T07:42:56.801Z,80.72
2018-06-10T07:44:01.440Z,80.28
2018-06-10T07:45:07.781Z,80.39
2018-06-10T07:46:13.232Z,81.06
2018-06-10T07:47:17.749Z,81.21
2018-06-10T07:48:22.822Z,81.49
2018-06-10T07:49:28.069Z,81.30
2018-06-10T07:50:33.718Z,81.27
2018-06-10T07:51:38.386Z,80.91
2018-06-10T07:52:43.048Z,81.13
2018-06-10T07:53:47.676Z,81.04
2018-06-10T07:54:53.145Z,80.95
2018-06-10T07:55:57.796Z,81.01
2018-06-10T07:57:03.225Z,80.86
2018-06-10T07:58:08.574Z,80.74
2018-06-10T07:59:15.306Z,80.45
2018-06-10T08:00:21.589Z,80.31
2018-06-10T08:01:28.728Z,80.68
2018-06-10T08:02:33.949Z,80.93
2018-06-10T08:03:39.112Z,80.87
2018-06-10T08:04:43.865Z,80.88
2018-06-10T08:05:48.619Z,80.37
2018-06-10T08:06:53.594Z,80.75
2018-06-10T08:07:58.232Z,79.91
2018-06-10T08:09:04.566Z,79.15
2018-06-10T08:10:11.387Z,78.46
2018-06-10T08:11:16.378Z,78.13
2018-06-10T08:12:21.167Z,78.99
2018-06-10T08:14:30.058Z,78.52
2018-06-10T08:15:35.131Z,78.95
2018-06-10T08:16:40.356Z,79.48
2018-06-10T08:17:50.474Z,79.29
2018-06-10T08:18:55.664Z,79.03
2018-06-10T08:20:00.356Z,78.62
2018-06-10T08:21:04.985Z,78.31
2018-06-10T08:22:10.537Z,77.67
2018-06-10T08:23:15.121Z,77.20
2018-06-10T08:24:19.653Z,77.34
2018-06-10T08:25:25.132Z,77.30
2018-06-10T08:26:29.847Z,77.18
2018-06-10T08:27:34.419Z,75.68
2018-06-10T08:28:38.980Z,74.83
2018-06-10T08:29:43.540Z,74.77
2018-06-10T08:30:48.062Z,74.49
2018-06-10T08:31:53.737Z,74.61
2018-06-10T08:32:58.885Z,73.43
2018-06-10T08:34:03.461Z,73.16
2018-06-10T08:35:08.005Z,73.73
2018-06-10T08:36:12.516Z,73.16
2018-06-10T08:37:17.093Z,71.86
2018-06-10T08:38:22.130Z,71.91
2018-06-10T08:39:29.323Z,71.06
2018-06-10T08:40:33.815Z,70.28
2018-06-10T08:41:38.541Z,70.79
2018-06-10T08:42:43.781Z,70.26
2018-06-10T08:43:48.333Z,71.30
2018-06-10T08:44:53.222Z,71.05
2018-06-10T08:45:58.803Z,71.21
2018-06-10T08:47:03.369Z,71.33
2018-06-10T08:48:08.139Z,70.73
2018-06-10T08:49:12.660Z,70.29
2018-06-10T08:50:17.246Z,69.96
2018-06-10T08:51:22.994Z,69.64
2018-06-10T08:52:27.545Z,69.76
2018-06-10T08:53:33.099Z,69.52
2018-06-10T08:54:39.954Z,70.21
2018-06-10T08:55:46.402Z,70.20
2018-06-10T08:56:54.214Z,70.35
2018-06-10T08:58:00.608Z,69.50
2018-06-10T08:59:06.288Z,69.97
2018-06-10T09:00:11.758Z,69.69
2018-06-10T09:01:16.824Z,70.10
2018-06-10T09:02:22.801Z,71.03
2018-06-10T09:03:29.319Z,71.59
2018-06-10T09:04:35.798Z,71.32
2018-06-10T09:05:40.487Z,70.49
2018-06-10T09:06:48.687Z,70.91
2018-06-10T09:07:57.292Z,70.31
2018-06-10T09:09:02.280Z,69.80
2018-06-10T09:10:07.688Z,69.73
2018-06-10T09:11:14.273Z,69.45
2018-06-10T09:12:18.936Z,69.03
2018-06-10T09:13:25.031Z,68.99
2018-06-10T09:14:29.734Z,68.34
2018-06-10T09:15:34.471Z,68.89
2018-06-10T09:16:39.297Z,68.56
2018-06-10T09:17:44.538Z,68.37
2018-06-10T09:18:49.984Z,67.49
2018-06-10T09:19:54.607Z,67.11
2018-06-10T09:21:01.745Z,68.15
2018-06-10T09:22:06.490Z,68.07
2018-06-10T09:23:12.329Z,67.78
2018-06-10T09:24:19.030Z,67.44
2018-06-10T09:25:24.609Z,67.69
2018-06-10T09:26:29.359Z,67.84
2018-06-10T09:27:34.369Z,67.92
2018-06-10T09:28:43.252Z,66.99
2018-06-10T09:29:49.669Z,67.63
2018-06-10T09:30:56.507Z,68.03
2018-06-10T09:32:04.117Z,67.13
2018-06-10T09:33:09.509Z,67.92
2018-06-10T09:34:14.338Z,67.16
2018-06-10T09:35:19.667Z,67.27
2018-06-10T09:36:24.209Z,66.48
2018-06-10T09:37:31.758Z,66.67
2018-06-10T09:38:38.400Z,67.59
2018-06-10T09:39:43.115Z,67.12
2018-06-10T09:40:47.749Z,67.55
2018-06-10T09:41:52.506Z,67.83
2018-06-10T09:43:02.788Z,68.87
2018-06-10T09:44:07.681Z,68.75
2018-06-10T09:45:12.556Z,68.44
2018-06-10T09:46:18.736Z,67.80
2018-06-10T09:47:25.052Z,67.45
2018-06-10T09:48:29.655Z,67.64
2018-06-10T09:49:36.768Z,68.72
2018-06-10T09:50:55.156Z,68.23
2018-06-10T09:52:00.020Z,68.70
2018-06-10T09:53:06.879Z,68.85
2018-06-10T09:54:12.704Z,67.65
2018-06-10T09:55:20.955Z,67.78
2018-06-10T09:56:25.840Z,68.27
2018-06-10T09:57:30.619Z,67.76
2018-06-10T09:58:36.503Z,68.26
2018-06-10T09:59:41.882Z,68.30
2018-06-10T10:00:49.223Z,68.08
2018-06-10T10:02:00.302Z,68.43
2018-06-10T10:03:05.684Z,68.62
2018-06-10T10:04:10.713Z,70.09
2018-06-10T10:05:20.073Z,69.64
2018-06-10T10:06:24.751Z,69.54
2018-06-10T10:07:29.511Z,70.25
2018-06-10T10:08:34.181Z,70.43
2018-06-10T10:09:40.298Z,70.32
2018-06-10T10:10:44.963Z,70.66
2018-06-10T10:11:49.650Z,71.52
2018-06-10T10:12:54.711Z,71.93
2018-06-10T10:13:59.654Z,71.49
2018-06-10T10:15:04.272Z,69.96
2018-06-10T10:16:09.773Z,69.62
2018-06-10T10:17:14.312Z,68.59
2018-06-10T10:18:19.705Z,67.71
2018-06-10T10:19:24.944Z,67.14
2018-06-10T10:20:30.799Z,67.35
2018-06-10T10:21:35.500Z,66.60
2018-06-10T10:22:40.992Z,65.81
2018-06-10T10:23:46.270Z,65.39
2018-06-10T10:24:50.956Z,65.22
2018-06-10T10:25:55.474Z,66.02
2018-06-10T10:27:00.502Z,67.26
2018-06-10T10:28:05.437Z,66.67
2018-06-10T10:29:15.115Z,67.36
2018-06-10T10:30:21.214Z,67.14
2018-06-10T10:31:27.094Z,67.14
2018-06-10T10:32:31.798Z,66.72
2018-06-10T10:33:41.800Z,67.68
2018-06-10T10:34:47.605Z,67.05
2018-06-10T10:35:53.319Z,67.59
2018-06-10T10:37:01.003Z,67.08
2018-06-10T10:38:06.452Z,68.88
2018-06-10T10:39:12.072Z,70.58
2018-06-10T10:40:17.492Z,71.69
2018-06-10T10:41:22.536Z,71.99
2018-06-10T10:42:27.992Z,72.46
2018-06-10T10:43:32.638Z,72.71
2018-06-10T10:44:39.102Z,72.53
2018-06-10T10:45:44.084Z,73.04
2018-06-10T10:46:49.794Z,73.38
2018-06-10T10:47:54.614Z,73.60
2018-06-10T10:49:00.020Z,73.48
2018-06-10T10:50:06.371Z,73.09
2018-06-10T10:51:12.110Z,72.59
2018-06-10T10:52:18.506Z,72.09
2018-06-10T10:53:23.784Z,71.67
2018-06-10T10:54:28.467Z,71.74
2018-06-10T10:55:34.115Z,70.89
2018-06-10T10:56:38.801Z,70.04
2018-06-10T10:57:45.034Z,70.32
2018-06-10T10:58:54.816Z,69.98
2018-06-10T11:00:01.695Z,69.74
2018-06-10T11:01:09.025Z,69.33
2018-06-10T11:02:16.343Z,69.05
2018-06-10T11:03:23.797Z,69.56
2018-06-10T11:04:30.627Z,69.82
2018-06-10T11:05:38.173Z,70.92
2018-06-10T11:06:43.401Z,70.86
2018-06-10T11:07:52.962Z,71.54
2018-06-10T11:08:58.878Z,71.15
2018-06-10T11:10:10.239Z,71.01
2018-06-10T11:11:14.787Z,71.59
2018-06-10T11:12:21.360Z,69.96
2018-06-10T11:13:26.197Z,68.86
2018-06-10T11:14:30.810Z,69.36
2018-06-10T11:15:38.802Z,69.09
2018-06-10T11:16:46.648Z,67.71
2018-06-10T11:17:52.486Z,68.16
2018-06-10T11:19:02.354Z,68.73
2018-06-10T11:20:08.360Z,68.67
2018-06-10T11:21:24.325Z,67.69
2018-06-10T11:22:35.325Z,66.80
2018-06-10T11:23:40.925Z,67.33
2018-06-10T11:24:46.498Z,66.46
2018-06-10T11:25:53.002Z,66.06
2018-06-10T11:27:01.261Z,66.12
2018-06-10T11:28:07.942Z,65.85
2018-06-10T11:29:13.370Z,66.82
2018-06-10T11:30:19.731Z,66.87
2018-06-10T11:31:24.395Z,66.81
2018-06-10T11:32:31.336Z,67.18
2018-06-10T11:33:36.054Z,67.40
2018-06-10T11:34:42.165Z,67.19
2018-06-10T11:35:47.953Z,66.73
2018-06-10T11:36:53.840Z,65.84
2018-06-10T11:38:00.093Z,65.91
2018-06-10T11:39:06.920Z,64.85
2018-06-10T11:40:11.897Z,65.05
2018-06-10T11:41:16.544Z,64.44
2018-06-10T11:42:21.317Z,63.69
2018-06-10T11:43:27.015Z,64.77
2018-06-10T11:44:32.330Z,64.66
2018-06-10T11:45:39.010Z,65.17
2018-06-10T11:46:45.350Z,64.61
2018-06-10T11:47:50.717Z,63.07
2018-06-10T11:48:55.856Z,64.36
2018-06-10T11:50:00.462Z,63.76
2018-06-10T11:51:04.999Z,63.40
2018-06-10T11:52:09.606Z,63.91
2018-06-10T11:53:15.235Z,63.21
2018-06-10T11:54:20.451Z,63.73
2018-06-10T11:55:25.000Z,63.40
2018-06-10T11:56:30.361Z,64.45
2018-06-10T11:57:35.449Z,63.96
2018-06-10T11:58:40.040Z,63.24
2018-06-10T11:59:46.285Z,62.58
2018-06-10T12:00:50.852Z,62.16
2018-06-10T12:01:55.500Z,62.79
2018-06-10T12:03:00.075Z,63.26
2018-06-10T12:04:05.055Z,62.32
2018-06-10T12:05:09.781Z,61.88
2018-06-10T12:06:15.402Z,63.44
2018-06-10T12:07:21.019Z,63.53
2018-06-10T12:08:26.308Z,62.45
2018-06-10T12:09:32.491Z,62.12
2018-06-10T12:10:37.640Z,62.37
2018-06-10T12:11:43.238Z,61.33
2018-06-10T12:12:50.593Z,61.05
2018-06-10T12:13:56.900Z,60.33
2018-06-10T12:15:01.822Z,61.48
2018-06-10T12:16:07.239Z,61.10
2018-06-10T12:17:13.400Z,60.51
2018-06-10T12:18:20.164Z,61.21
2018-06-10T12:19:27.811Z,61.19
2018-06-10T12:20:35.276Z,61.03
2018-06-10T12:21:40.610Z,60.45
2018-06-10T12:22:48.825Z,60.87
2018-06-10T12:23:55.191Z,59.43
2018-06-10T12:25:00.703Z,59.58
2018-06-10T12:26:06.911Z,60.51
2018-06-10T12:27:13.297Z,60.17
2018-06-10T12:28:21.825Z,60.95
2018-06-10T12:29:27.581Z,60.05
2018-06-10T12:30:37.598Z,59.42
2018-06-10T12:31:43.246Z,59.31
2018-06-10T12:32:50.510Z,59.06
2018-06-10T12:33:58.339Z,59.39
2018-06-10T12:35:04.830Z,58.45
2018-06-10T12:36:12.772Z,58.48
2018-06-10T12:37:22.608Z,59.10
2018-06-10T12:38:29.264Z,59.38
2018-06-10T12:39:37.428Z,59.33
2018-06-10T12:40:50.043Z,58.40
2018-06-10T12:41:54.594Z,58.46
2018-06-10T12:43:01.123Z,58.26
2018-06-10T12:44:10.558Z,57.97
2018-06-10T12:45:17.396Z,57.52
2018-06-10T12:46:22.005Z,57.56
2018-06-10T12:47:28.211Z,57.24
2018-06-10T12:48:33.121Z,57.35
2018-06-10T12:49:38.347Z,58.42
2018-06-10T12:50:43.385Z,59.37
2018-06-10T12:51:50.467Z,58.90
2018-06-10T12:52:57.174Z,58.66
2018-06-10T12:54:07.225Z,58.26
2018-06-10T12:55:11.932Z,57.18
2018-06-10T12:56:20.522Z,57.92
2018-06-10T12:57:29.796Z,58.14
2018-06-10T12:58:35.835Z,57.13
2018-06-10T12:59:43.257Z,57.04
2018-06-10T13:00:51.085Z,56.88
2018-06-10T13:01:57.986Z,56.71
2018-06-10T13:03:03.646Z,56.31
2018-06-10T13:04:08.249Z,55.78
2018-06-10T13:05:15.252Z,56.35
2018-06-10T13:06:21.001Z,56.29
2018-06-10T13:07:27.820Z,55.98
2018-06-10T13:08:33.417Z,55.22
2018-06-10T13:09:41.763Z,56.00
2018-06-10T13:10:48.458Z,55.88
2018-06-10T13:11:53.074Z,56.62
2018-06-10T13:12:58.954Z,56.89
2018-06-10T13:14:06.501Z,58.14
2018-06-10T13:15:12.598Z,57.16
2018-06-10T13:16:18.123Z,57.90
2018-06-10T13:17:24.431Z,57.95
2018-06-10T13:18:30.830Z,57.72
2018-06-10T13:19:41.055Z,56.54
2018-06-10T13:20:51.359Z,56.45
2018-06-10T13:21:59.722Z,56.82
2018-06-10T13:23:05.612Z,57.10
2018-06-10T13:24:14.170Z,56.80
2018-06-10T13:25:22.185Z,56.23
2018-06-10T13:26:29.502Z,55.48
2018-06-10T13:27:34.794Z,55.35
2018-06-10T13:28:41.483Z,53.88
2018-06-10T13:29:48.720Z,54.33
2018-06-10T13:30:56.377Z,53.93
2018-06-10T13:32:09.016Z,53.34
2018-06-10T13:33:15.708Z,53.14
2018-06-10T13:34:36.934Z,52.68
2018-06-10T13:35:42.489Z,52.56
2018-06-10T13:36:48.387Z,52.58
2018-06-10T13:37:53.918Z,52.68
2018-06-10T13:39:01.132Z,53.78
2018-06-10T13:40:08.214Z,54.35
2018-06-10T13:41:14.373Z,54.69
2018-06-10T13:43:43.847Z,54.43
2018-06-10T13:44:55.667Z,54.25
2018-06-10T13:46:02.821Z,54.13
2018-06-10T13:47:09.999Z,53.89
2018-06-10T13:48:15.651Z,52.96
2018-06-10T13:49:20.728Z,52.24
2018-06-10T13:50:26.957Z,53.19
2018-06-10T13:51:32.538Z,53.75
2018-06-10T13:52:38.820Z,54.93
2018-06-10T13:53:47.361Z,55.19
2018-06-10T13:54:54.545Z,55.02
2018-06-10T13:56:02.232Z,54.68
2018-06-10T13:57:08.533Z,55.17
2018-06-10T13:58:17.502Z,53.56
2018-06-10T13:59:23.272Z,53.38
2018-06-10T14:00:28.727Z,54.64
2018-06-10T14:01:34.666Z,54.49
2018-06-10T14:02:42.729Z,54.99
2018-06-10T14:03:49.865Z,55.29
2018-06-10T14:04:58.693Z,55.71
2018-06-10T14:06:11.520Z,55.48
2018-06-10T14:07:25.607Z,54.82
2018-06-10T14:08:34.558Z,55.14
2018-06-10T14:09:51.265Z,55.94
2018-06-10T14:10:56.338Z,55.34
2018-06-10T14:12:05.634Z,54.65